Tuesday, January 17, 2017, 3:55 AM EST

KLNS, Lancaster Airport

Location: Lititz, PA, United States Lat: 40.117
Local Time: 3:55 AM EST ( 8:55 GMT) Lon: -76.3
Time Zone: US/Eastern Elev: 403 ft

Show me the last for .
Show Decoded

2017-01-17 03:26 METAR KLNS 170826Z AUTO 10003KT 7SM SCT025 OVC037 02/00 A3024 RMK AO2 T00220000
                 =
2017-01-17 02:53 METAR KLNS 170753Z AUTO 00000KT 7SM OVC021 02/00 A3025 RMK AO2 RAB17E28UPB28E30
                 SLP247 P0000 T00220000 =
2017-01-17 01:53 METAR KLNS 170653Z AUTO 00000KT 7SM OVC020 02/M01 A3026 RMK AO2 SLP250 T00171006
                 =
2017-01-17 00:53 METAR KLNS 170553Z AUTO 00000KT 7SM OVC017 02/M01 A3027 RMK AO2 SLP252 60000
                 T00171006 10028 20017 56020 =
2017-01-16 23:53 METAR KLNS 170453Z AUTO 00000KT 8SM OVC020 02/M01 A3029 RMK AO2 SLP260 T00171006
                 400331072 =
2017-01-16 22:53 METAR KLNS 170353Z 09004KT 7SM OVC025 02/M01 A3031 RMK AO2 SLP268 T00171011 =
2017-01-16 21:53 METAR KLNS 170253Z 00000KT 8SM BKN026 OVC038 02/M01 A3033 RMK AO2 UPB03E14
                 SLP274 P0000 60000 T00221011 56005 =
2017-01-16 20:53 METAR KLNS 170153Z 00000KT 9SM OVC042 02/M01 A3034 RMK AO2 RAB20E39UPB21E25
                 SLP277 P0000 T00171011 =
2017-01-16 19:53 METAR KLNS 170053Z 08003KT 10SM OVC046 02/M02 A3033 RMK AO2 SLP277 T00221017 =
2017-01-16 18:53 METAR KLNS 162353Z 00000KT 10SM OVC065 02/M03 A3034 RMK AO2 SLP280 T00221033
                 10033 20022 58009 =
2017-01-16 17:53 METAR KLNS 162253Z 00000KT 10SM OVC075 02/M04 A3036 RMK AO2 SLP285 T00221039 =
2017-01-16 16:53 METAR KLNS 162153Z 20003KT 10SM BKN030 OVC085 03/M04 A3037 RMK AO2 SLP287
                 T00281039 =
2017-01-16 15:53 METAR KLNS 162053Z 20004KT 10SM FEW024 OVC031 03/M04 A3037 RMK AO2 SLP288
                 T00331039 56007 =
2017-01-16 14:53 METAR KLNS 161953Z 19004KT 10SM OVC020 03/M04 A3037 RMK AO2 SLP288 T00331039 =
2017-01-16 13:53 METAR KLNS 161853Z 00000KT 10SM OVC023 03/M04 A3038 RMK AO2 SLP290 T00331039 =
2017-01-16 12:53 METAR KLNS 161753Z 19005KT 10SM OVC026 03/M04 A3039 RMK AO2 SLP296 T00331039
                 10033 21072 58027 =
2017-01-16 11:53 METAR KLNS 161653Z 00000KT 8SM OVC029 02/M03 A3044 RMK AO2 SLP310 T00221028 =
2017-01-16 11:43 METAR KLNS 161643Z 00000KT 8SM BKN029 02/M03 A3044 RMK AO2 T00171033 =
2017-01-16 10:53 METAR KLNS 161553Z 10003KT 8SM CLR 00/M04 A3046 RMK AO2 SLP319 T00001039 =
2017-01-16 09:53 METAR KLNS 161453Z 00000KT 5SM BR CLR M02/M04 A3047 RMK AO2 SLP324 T10221039
                 53006 =
2017-01-16 08:53 METAR KLNS 161353Z 00000KT 4SM BR CLR M04/M05 A3047 RMK AO2 SLP322 T10441050 =
2017-01-16 07:53 METAR KLNS 161253Z 00000KT 5SM BR CLR M06/M07 A3046 RMK AO2 SLP318 T10561072 =
2017-01-16 06:53 METAR KLNS 161153Z 00000KT 6SM BR CLR M06/M07 A3046 RMK AO2 SLP318 T10611067
                 11033 21072 53007 =
2017-01-16 05:53 METAR KLNS 161053Z 00000KT 6SM BR CLR M06/M07 A3044 RMK AO2 SLP314 T10561067 =
2017-01-16 04:53 METAR KLNS 160953Z AUTO 24003KT 6SM BR CLR M06/M07 A3044 RMK AO2 SLP312
                 T10611072 =

Support USWX by starting your Amazon purchase here.